Time;durP1;ratioP1;P1;durP2;ratioP2;P2;SDS_P1;SDS_P2;PMS_P1;PMS_P2;Temp;Humidity;BMP_temperature;BMP_pressure;BME280_temperature;BME280_humidity;BME280_pressure;Samples;Min_cycle;Max_cycle;Signal;HPM_P1;HPM_P2
2022/09/09 00:00:43;;;;;;;15.43;8.68;;;614.60;2432.00;;;;;;5092461;28;20047;-76
2022/09/09 00:03:23;;;;;;;11.65;7.95;;;614.70;2432.00;;;;;;5094003;28;20024;-78
2022/09/09 00:06:19;;;;;;;14.30;7.95;;;614.80;2432.00;;;;;;5087246;28;20385;-79
2022/09/09 00:09:10;;;;;;;13.53;7.93;;;614.80;2432.00;;;;;;5088508;28;20516;-78
2022/09/09 00:11:52;;;;;;;19.63;10.00;;;614.80;2432.00;;;;;;5092336;28;20111;-79
2022/09/09 00:14:44;;;;;;;13.18;8.38;;;614.80;2432.00;;;;;;5093354;28;20093;-80
2022/09/09 00:17:25;;;;;;;12.57;7.25;;;614.80;2432.00;;;;;;5082237;28;20521;-79
2022/09/09 00:20:13;;;;;;;15.88;8.30;;;614.90;2432.00;;;;;;5093561;28;20565;-79
2022/09/09 00:23:06;;;;;;;13.15;8.00;;;614.90;2432.00;;;;;;5093768;28;20489;-78
2022/09/09 00:25:46;;;;;;;12.63;8.13;;;614.90;2432.00;;;;;;5091667;28;20027;-79
2022/09/09 00:28:22;;;;;;;13.05;8.07;;;614.80;2432.00;;;;;;5091706;28;20539;-79
2022/09/09 00:30:50;;;;;;;;;;;614.80;2432.00;;;;;;5092360;28;20059;-79
2022/09/09 00:33:22;;;;;;;12.45;7.43;;;614.80;2432.00;;;;;;5093087;28;19908;-79
2022/09/09 00:35:54;;;;;;;14.40;8.55;;;614.80;2432.00;;;;;;5091716;28;20036;-79
2022/09/09 00:38:33;;;;;;;11.43;7.97;;;614.80;2432.00;;;;;;5092008;28;20020;-79
2022/09/09 00:41:21;;;;;;;16.23;8.18;;;614.90;2432.00;;;;;;5093107;28;20089;-79
2022/09/09 00:44:16;;;;;;;14.82;8.43;;;614.90;2432.00;;;;;;5092662;28;20020;-79
2022/09/09 00:46:45;;;;;;;11.77;8.35;;;614.90;2432.00;;;;;;5078700;28;20119;-77
2022/09/09 00:49:32;;;;;;;14.70;8.38;;;614.90;2432.00;;;;;;5092780;28;20028;-79
2022/09/09 00:52:20;;;;;;;15.57;9.07;;;614.90;2432.00;;;;;;5092718;28;20106;-79
2022/09/09 00:55:11;;;;;;;16.33;9.10;;;614.80;2432.00;;;;;;5092356;28;20032;-78
2022/09/09 00:57:38;;;;;;;13.35;9.60;;;614.80;2432.00;;;;;;5092700;28;20111;-79
2022/09/09 01:00:21;;;;;;;15.70;8.23;;;614.80;2432.00;;;;;;5092611;28;20028;-79
2022/09/09 01:03:21;;;;;;;11.38;8.38;;;614.70;2432.00;;;;;;5066855;28;20082;-77
2022/09/09 01:06:16;;;;;;;14.00;8.43;;;614.80;2432.00;;;;;;5092282;28;20040;-78
2022/09/09 01:08:57;;;;;;;16.42;9.45;;;614.80;2432.00;;;;;;5092216;28;20035;-78
2022/09/09 01:11:42;;;;;;;11.35;9.00;;;614.80;2432.00;;;;;;5091232;28;20024;-79
2022/09/09 01:14:36;;;;;;;16.63;9.50;;;614.70;2432.00;;;;;;5091159;28;20039;-79
2022/09/09 01:17:09;;;;;;;11.77;8.60;;;614.70;2432.00;;;;;;5091923;28;20508;-79
2022/09/09 01:19:44;;;;;;;12.40;9.18;;;614.70;2432.00;;;;;;5082691;28;20465;-78
2022/09/09 01:22:13;;;;;;;20.45;10.40;;;614.70;2432.00;;;;;;5092414;28;20020;-79
2022/09/09 01:25:13;;;;;;;14.73;9.75;;;614.70;2432.00;;;;;;5090611;28;20031;-78
2022/09/09 01:27:42;;;;;;;18.75;10.38;;;614.70;2432.00;;;;;;5090805;28;20448;-79
2022/09/09 01:30:11;;;;;;;17.50;10.70;;;614.60;2432.00;;;;;;5092160;28;20020;-79
2022/09/09 01:32:43;;;;;;;15.43;10.55;;;614.60;2432.00;;;;;;5090699;28;20035;-80
2022/09/09 01:35:23;;;;;;;22.88;10.93;;;614.60;2432.00;;;;;;5091946;28;20035;-77
2022/09/09 01:37:49;;;;;;;15.85;10.27;;;614.60;2432.00;;;;;;5092120;28;20027;-79
2022/09/09 01:40:15;;;;;;;14.43;10.45;;;614.60;2432.00;;;;;;5091754;28;20020;-77
2022/09/09 01:42:41;;;;;;;17.38;10.50;;;614.60;2432.00;;;;;;5090821;28;20101;-79
2022/09/09 01:45:07;;;;;;;16.20;10.52;;;614.60;2432.00;;;;;;5089746;28;20051;-77
2022/09/09 01:47:33;;;;;;;18.52;11.30;;;614.60;2432.00;;;;;;5071989;28;20036;-77
2022/09/09 01:50:00;;;;;;;17.45;10.43;;;614.60;2432.00;;;;;;5083835;28;20086;-80
2022/09/09 01:52:27;;;;;;;20.67;10.45;;;614.60;2432.00;;;;;;5091969;28;20070;-79
2022/09/09 01:54:52;;;;;;;25.17;10.80;;;614.70;2432.00;;;;;;5091752;28;20028;-77
2022/09/09 01:57:33;;;;;;;18.98;10.10;;;614.70;2432.00;;;;;;5091546;28;20016;-79
2022/09/09 02:00:14;;;;;;;13.02;9.90;;;614.70;2432.00;;;;;;5091905;28;20024;-79
2022/09/09 02:02:46;;;;;;;20.02;9.70;;;614.70;2432.00;;;;;;5091696;28;20074;-79
2022/09/09 02:05:29;;;;;;;12.57;9.32;;;614.70;2432.00;;;;;;5090415;28;20036;-78
2022/09/09 02:08:24;;;;;;;25.38;10.63;;;614.70;2432.00;;;;;;5057617;28;20367;-78
2022/09/09 02:11:12;;;;;;;17.52;9.18;;;614.70;2432.00;;;;;;5073248;28;20494;-79
2022/09/09 02:13:39;;;;;;;17.73;9.02;;;614.70;2432.00;;;;;;5091547;28;20513;-79
2022/09/09 02:16:11;;;;;;;13.77;8.75;;;614.60;2432.00;;;;;;5091503;28;20543;-78
2022/09/09 02:19:06;;;;;;;18.40;9.38;;;614.60;2432.00;;;;;;5091705;28;20089;-79
2022/09/09 02:21:34;;;;;;;17.05;9.30;;;614.60;2432.00;;;;;;5090309;28;20069;-79
2022/09/09 02:24:04;;;;;;;11.40;8.45;;;614.60;2432.00;;;;;;5091486;28;20469;-78
2022/09/09 02:26:32;;;;;;;27.77;8.65;;;614.60;2432.00;;;;;;5090268;28;20035;-79
2022/09/09 02:29:03;;;;;;;19.83;8.93;;;614.60;2432.00;;;;;;5091541;28;20036;-79
2022/09/09 02:31:30;;;;;;;24.08;9.25;;;614.50;2432.00;;;;;;5095348;28;20056;-78
2022/09/09 02:34:01;;;;;;;15.32;7.68;;;614.50;2432.00;;;;;;5094157;28;20032;-79
2022/09/09 02:36:33;;;;;;;17.20;9.25;;;614.50;2432.00;;;;;;5095455;28;20030;-78
2022/09/09 02:39:00;;;;;;;12.15;8.63;;;614.50;2432.00;;;;;;5093826;28;20024;-78
2022/09/09 02:41:35;;;;;;;18.52;9.35;;;614.40;2432.00;;;;;;5093785;28;20054;-78
2022/09/09 02:44:01;;;;;;;14.90;8.95;;;614.40;2432.00;;;;;;5093893;28;20478;-78
2022/09/09 02:46:46;;;;;;;19.05;9.18;;;589.70;2432.00;;;;;;5093574;28;20097;-78
2022/09/09 02:49:33;;;;;;;21.92;8.57;;;589.70;2432.00;;;;;;5070914;28;20026;-79
2022/09/09 02:52:16;;;;;;;20.08;9.10;;;589.70;2432.00;;;;;;5094906;28;20024;-79
2022/09/09 02:54:43;;;;;;;18.60;9.60;;;614.40;2432.00;;;;;;5094729;28;20099;-78
2022/09/09 02:57:21;;;;;;;17.90;8.98;;;589.70;2432.00;;;;;;5080605;28;20370;-79
2022/09/09 02:59:47;;;;;;;26.40;9.50;;;589.70;2432.00;;;;;;5095213;28;20020;-79
2022/09/09 03:02:13;;;;;;;15.63;10.20;;;589.70;2432.00;;;;;;5093461;28;20019;-79
2022/09/09 03:04:39;;;;;;;17.02;10.02;;;589.70;2432.00;;;;;;5093665;28;20497;-79
2022/09/09 03:07:05;;;;;;;16.35;8.57;;;589.70;2432.00;;;;;;5093191;28;20034;-79
2022/09/09 03:09:32;;;;;;;15.77;10.50;;;589.70;2432.00;;;;;;5094674;28;20016;-79
2022/09/09 03:11:59;;;;;;;18.83;10.05;;;589.70;2432.00;;;;;;5094560;28;20040;-79
2022/09/09 03:14:25;;;;;;;18.08;10.35;;;589.70;2432.00;;;;;;5094294;28;20056;-77
2022/09/09 03:16:54;;;;;;;18.27;10.15;;;589.70;2432.00;;;;;;5093776;28;20079;-78
2022/09/09 03:19:20;;;;;;;15.85;9.77;;;589.70;2432.00;;;;;;5096285;28;20032;-77
2022/09/09 03:21:47;;;;;;;16.20;10.45;;;589.50;2432.00;;;;;;5094288;28;20470;-77
2022/09/09 03:24:13;;;;;;;15.70;10.50;;;589.50;2432.00;;;;;;5094316;28;20028;-79
2022/09/09 03:26:40;;;;;;;19.45;10.82;;;589.60;2432.00;;;;;;5092899;28;20016;-79
2022/09/09 03:29:07;;;;;;;21.88;10.95;;;589.60;2432.00;;;;;;5092829;28;20020;-79
2022/09/09 03:31:34;;;;;;;17.63;11.18;;;589.40;2432.00;;;;;;5093088;28;20022;-79
2022/09/09 03:33:59;;;;;;;13.38;9.82;;;589.70;2432.00;;;;;;5094102;28;20089;-79
2022/09/09 03:36:26;;;;;;;15.27;11.20;;;589.60;2432.00;;;;;;5094171;28;20020;-77
2022/09/09 03:38:54;;;;;;;16.10;10.57;;;589.50;2432.00;;;;;;5076623;28;20470;-80
2022/09/09 03:41:23;;;;;;;22.52;10.98;;;589.60;2432.00;;;;;;5082079;28;20012;-79
2022/09/09 03:43:53;;;;;;;19.83;11.98;;;589.60;2432.00;;;;;;5092921;28;20032;-79
2022/09/09 03:46:20;;;;;;;20.08;13.18;;;589.50;2432.00;;;;;;5092656;28;20486;-79
2022/09/09 03:48:46;;;;;;;16.33;11.40;;;589.50;2432.00;;;;;;5092415;28;20181;-79
2022/09/09 03:51:12;;;;;;;22.88;12.13;;;589.40;2432.00;;;;;;5093167;28;20111;-78
2022/09/09 03:53:38;;;;;;;19.20;10.82;;;589.50;2432.00;;;;;;5089913;28;20067;-79
2022/09/09 03:56:06;;;;;;;18.33;12.15;;;589.50;2432.00;;;;;;5081059;28;20057;-79
2022/09/09 03:58:33;;;;;;;18.33;12.13;;;589.50;2432.00;;;;;;5089397;28;20535;-79
2022/09/09 04:01:03;;;;;;;16.15;11.55;;;589.50;2432.00;;;;;;5078499;28;20478;-76
2022/09/09 04:03:30;;;;;;;15.55;10.90;;;589.50;2432.00;;;;;;5072403;28;20016;-79
2022/09/09 04:05:59;;;;;;;16.60;11.35;;;589.50;2432.00;;;;;;5080559;28;20389;-77
2022/09/09 04:08:27;;;;;;;20.83;11.18;;;589.40;2432.00;;;;;;5076297;28;20028;-77
2022/09/09 04:10:57;;;;;;;16.23;12.45;;;589.40;2432.00;;;;;;5072861;28;20048;-78
2022/09/09 04:13:24;;;;;;;13.80;10.45;;;589.40;2432.00;;;;;;5074219;28;20481;-77
2022/09/09 04:15:52;;;;;;;15.60;11.07;;;589.40;2432.00;;;;;;5074355;28;20036;-76
2022/09/09 04:18:19;;;;;;;14.10;10.35;;;589.40;2432.00;;;;;;5077204;28;20048;-77
2022/09/09 04:20:47;;;;;;;19.23;10.73;;;589.40;2432.00;;;;;;5070259;28;20028;-78
2022/09/09 04:23:14;;;;;;;19.05;10.90;;;589.40;2432.00;;;;;;5080641;28;20459;-77
2022/09/09 04:25:44;;;;;;;19.17;11.45;;;589.40;2432.00;;;;;;5079152;28;20460;-76
2022/09/09 04:28:10;;;;;;;19.15;10.02;;;589.40;2432.00;;;;;;5081622;28;20024;-77
2022/09/09 04:30:36;;;;;;;20.10;9.93;;;589.40;2432.00;;;;;;5071868;28;20012;-76
2022/09/09 04:33:01;;;;;;;18.73;9.48;;;589.20;2432.00;;;;;;5071093;28;20494;-76
2022/09/09 04:35:27;;;;;;;15.75;9.38;;;589.20;2432.00;;;;;;5087994;28;20040;-73
2022/09/09 04:37:53;;;;;;;14.23;8.90;;;589.20;2432.00;;;;;;5092683;28;20098;-74
2022/09/09 04:40:19;;;;;;;16.95;9.32;;;589.20;2432.00;;;;;;5091227;28;20032;-75
2022/09/09 04:42:44;;;;;;;16.45;9.20;;;589.20;2432.00;;;;;;5092659;28;20027;-74
2022/09/09 04:45:11;;;;;;;15.18;9.95;;;589.10;2432.00;;;;;;5092537;28;20024;-76
2022/09/09 04:47:36;;;;;;;15.50;9.85;;;589.10;2432.00;;;;;;5092453;28;20465;-74
2022/09/09 04:50:02;;;;;;;18.77;11.10;;;589.10;2432.00;;;;;;5092585;28;20031;-74
2022/09/09 04:52:28;;;;;;;20.20;9.98;;;589.10;2432.00;;;;;;5092522;28;20023;-74
2022/09/09 04:54:54;;;;;;;16.83;10.40;;;589.00;2432.00;;;;;;5081243;28;20117;-75
2022/09/09 04:57:20;;;;;;;14.80;9.43;;;589.10;2432.00;;;;;;5072527;28;20038;-76
2022/09/09 04:59:45;;;;;;;16.92;10.00;;;589.00;2432.00;;;;;;5071643;28;20487;-76
2022/09/09 05:02:11;;;;;;;13.43;9.30;;;589.00;2432.00;;;;;;5080085;28;20038;-75
2022/09/09 05:04:37;;;;;;;12.90;9.27;;;589.00;2432.00;;;;;;5092542;28;20024;-77
2022/09/09 05:07:03;;;;;;;19.80;9.68;;;589.00;2432.00;;;;;;5091031;28;20036;-77
2022/09/09 05:09:29;;;;;;;16.02;9.45;;;589.00;2432.00;;;;;;5092316;28;20112;-77
2022/09/09 05:11:55;;;;;;;14.55;8.88;;;589.00;2432.00;;;;;;5081794;28;20020;-76
2022/09/09 05:14:22;;;;;;;17.08;9.32;;;589.00;2432.00;;;;;;5074233;28;20048;-75
2022/09/09 05:16:49;;;;;;;19.02;8.73;;;589.00;2432.00;;;;;;5076788;28;20616;-75
2022/09/09 05:19:15;;;;;;;19.10;9.65;;;589.00;2432.00;;;;;;5071601;28;20497;-76
2022/09/09 05:21:41;;;;;;;13.43;8.30;;;589.00;2432.00;;;;;;5079769;28;20020;-76
2022/09/09 05:24:07;;;;;;;22.52;8.43;;;589.10;2432.00;;;;;;5072723;28;20033;-76
2022/09/09 05:26:33;;;;;;;14.90;8.68;;;589.00;2432.00;;;;;;5076667;28;20420;-77
2022/09/09 05:29:00;;;;;;;15.93;9.40;;;589.00;2432.00;;;;;;5074034;28;20024;-76
2022/09/09 05:31:27;;;;;;;13.75;9.15;;;589.00;2432.00;;;;;;5071148;28;20066;-77
2022/09/09 05:33:53;;;;;;;12.88;8.40;;;589.00;2432.00;;;;;;5075557;28;20430;-77
2022/09/09 05:36:21;;;;;;;16.83;8.77;;;589.10;2432.00;;;;;;5083900;28;20481;-78
2022/09/09 05:38:47;;;;;;;14.98;8.48;;;589.10;2432.00;;;;;;5087776;28;20462;-78
2022/09/09 05:41:15;;;;;;;15.73;8.50;;;589.10;2432.00;;;;;;5082153;28;20016;-76
2022/09/09 05:43:44;;;;;;;13.43;8.40;;;589.10;2432.00;;;;;;5075904;28;20134;-77
2022/09/09 05:46:17;;;;;;;19.13;8.88;;;589.10;2432.00;;;;;;5090423;28;20040;-77
2022/09/09 05:48:47;;;;;;;19.27;9.27;;;589.20;2432.00;;;;;;5092097;28;20024;-78
2022/09/09 05:51:21;;;;;;;14.05;8.85;;;589.20;2432.00;;;;;;5091987;28;20024;-80
2022/09/09 05:53:48;;;;;;;12.15;8.07;;;589.30;2432.00;;;;;;5089873;28;20035;-78
2022/09/09 05:56:19;;;;;;;15.85;8.63;;;589.30;2432.00;;;;;;5077859;28;20024;-77
2022/09/09 05:58:46;;;;;;;15.57;8.68;;;589.20;2432.00;;;;;;5084537;28;20037;-78
2022/09/09 06:01:23;;;;;;;17.48;9.27;;;589.20;2432.00;;;;;;5077427;28;20055;-78
2022/09/09 06:03:51;;;;;;;12.68;8.20;;;589.10;2432.00;;;;;;5075265;28;20021;-78
2022/09/09 06:06:22;;;;;;;13.15;8.57;;;589.20;2432.00;;;;;;5073030;28;20021;-78
2022/09/09 06:08:50;;;;;;;14.82;9.60;;;589.20;2432.00;;;;;;5082167;28;20054;-78
2022/09/09 06:11:22;;;;;;;17.83;9.05;;;589.20;2432.00;;;;;;5082165;28;20103;-77
2022/09/09 06:13:51;;;;;;;16.73;7.72;;;589.10;2432.00;;;;;;5086542;28;20086;-77
2022/09/09 06:16:19;;;;;;;12.75;8.60;;;589.20;2432.00;;;;;;5079715;28;20028;-78
2022/09/09 06:18:45;;;;;;;17.02;9.38;;;589.20;2432.00;;;;;;5085257;28;20447;-75
2022/09/09 06:21:18;;;;;;;18.35;8.70;;;589.20;2432.00;;;;;;5094373;28;20036;-79
2022/09/09 06:23:44;;;;;;;16.73;8.85;;;589.20;2432.00;;;;;;5094125;28;20028;-79
2022/09/09 06:26:22;;;;;;;16.20;9.45;;;589.30;2432.00;;;;;;5093776;28;20040;-78
2022/09/09 06:28:49;;;;;;;20.35;9.70;;;589.40;2432.00;;;;;;5095183;28;20024;-78
2022/09/09 06:31:21;;;;;;;13.30;8.80;;;589.40;2432.00;;;;;;5094142;28;20123;-77
2022/09/09 06:33:49;;;;;;;15.20;9.38;;;589.40;2432.00;;;;;;5095215;28;20024;-78
2022/09/09 06:36:17;;;;;;;14.00;8.23;;;589.50;2432.00;;;;;;5095254;28;20055;-77
2022/09/09 06:38:44;;;;;;;13.82;9.05;;;589.50;2432.00;;;;;;5093811;28;20027;-77
2022/09/09 06:41:12;;;;;;;14.70;9.13;;;589.50;2432.00;;;;;;5093701;28;20035;-78
2022/09/09 06:43:38;;;;;;;15.63;8.98;;;589.50;2432.00;;;;;;5095162;28;20056;-79
2022/09/09 06:46:12;;;;;;;23.23;8.35;;;589.50;2432.00;;;;;;5097798;28;20035;-81
2022/09/09 06:48:44;;;;;;;15.23;8.85;;;589.50;2432.00;;;;;;5115962;28;20047;-81
2022/09/09 06:51:12;;;;;;;13.25;8.82;;;589.60;2432.00;;;;;;5106001;28;20465;-86
2022/09/09 06:53:39;;;;;;;15.55;8.50;;;589.60;2432.00;;;;;;5089828;28;20028;-84
2022/09/09 06:56:11;;;;;;;18.42;8.60;;;589.70;2432.00;;;;;;5094916;28;20068;-87
2022/09/09 06:58:42;;;;;;;15.07;8.90;;;589.70;2432.00;;;;;;5095935;28;20055;-83
2022/09/09 07:01:09;;;;;;;15.52;8.65;;;589.70;2432.00;;;;;;5094703;28;20406;-83
2022/09/09 07:03:35;;;;;;;13.45;8.30;;;614.40;2432.00;;;;;;5094336;28;20024;-82
2022/09/09 07:06:02;;;;;;;22.52;9.15;;;614.50;2432.00;;;;;;5094048;28;20021;-80
2022/09/09 07:08:28;;;;;;;13.07;8.65;;;614.80;2432.00;;;;;;5095131;28;20072;-80
2022/09/09 07:10:53;;;;;;;17.30;8.73;;;614.50;2432.00;;;;;;5093340;28;20028;-80
2022/09/09 07:13:28;;;;;;;15.57;8.18;;;614.50;2432.00;;;;;;5093178;28;20023;-80
2022/09/09 07:15:54;;;;;;;13.48;8.30;;;614.50;2432.00;;;;;;5093566;28;20135;-80
2022/09/09 07:18:20;;;;;;;16.20;8.13;;;614.50;2432.00;;;;;;5093287;28;20177;-80
2022/09/09 07:20:56;;;;;;;14.55;8.32;;;614.50;2432.00;;;;;;5095045;28;20024;-78
2022/09/09 07:23:23;;;;;;;14.38;9.52;;;614.50;2432.00;;;;;;5092996;28;20032;-79
2022/09/09 07:25:50;;;;;;;16.67;9.77;;;589.70;2432.00;;;;;;5093229;28;20447;-78
2022/09/09 07:28:16;;;;;;;16.90;9.43;;;614.60;2432.00;;;;;;5094243;28;20019;-78
2022/09/09 07:30:42;;;;;;;15.75;9.77;;;614.50;2432.00;;;;;;5093355;28;20057;-78
2022/09/09 07:33:09;;;;;;;14.63;8.68;;;614.40;2432.00;;;;;;5093046;28;20115;-77
2022/09/09 07:35:36;;;;;;;12.27;8.55;;;614.60;2432.00;;;;;;5094579;28;20032;-78
2022/09/09 07:38:06;;;;;;;18.75;9.00;;;614.60;2432.00;;;;;;5092885;28;20074;-80
2022/09/09 07:40:33;;;;;;;16.65;9.88;;;614.70;2432.00;;;;;;5093486;28;20094;-78
2022/09/09 07:42:59;;;;;;;13.80;9.15;;;614.70;2432.00;;;;;;5093443;28;20027;-81
2022/09/09 07:45:27;;;;;;;14.88;9.65;;;614.80;2432.00;;;;;;5093270;28;20040;-81
2022/09/09 07:47:55;;;;;;;14.27;10.43;;;614.50;2432.00;;;;;;5093207;28;20085;-85
2022/09/09 07:50:20;;;;;;;11.93;8.80;;;614.50;2432.00;;;;;;5092554;28;20034;-86
2022/09/09 07:52:46;;;;;;;12.55;8.80;;;614.50;2432.00;;;;;;5093055;28;20024;-77
2022/09/09 07:55:12;;;;;;;13.52;9.45;;;614.50;2432.00;;;;;;5085917;28;20033;-80
2022/09/09 07:57:38;;;;;;;14.18;9.57;;;614.50;2432.00;;;;;;5074826;28;20499;-78
2022/09/09 08:00:04;;;;;;;12.73;9.18;;;614.50;2432.00;;;;;;5074092;28;20082;-78
2022/09/09 08:02:30;;;;;;;14.52;8.75;;;614.50;2432.00;;;;;;5074520;28;20466;-78
2022/09/09 08:04:56;;;;;;;17.52;8.35;;;614.60;2432.00;;;;;;5089682;28;20052;-77
2022/09/09 08:07:23;;;;;;;14.93;8.95;;;614.80;2432.00;;;;;;5077239;28;20071;-77
2022/09/09 08:09:49;;;;;;;18.17;8.15;;;614.90;2432.00;;;;;;5090083;28;20482;-78
2022/09/09 08:12:16;;;;;;;12.35;8.60;;;615.00;2432.00;;;;;;5082424;28;20043;-78
2022/09/09 08:14:42;;;;;;;11.57;7.55;;;614.90;2432.00;;;;;;5070150;28;20497;-80
2022/09/09 08:17:07;;;;;;;14.25;8.40;;;615.20;2432.00;;;;;;5082872;28;20056;-79
2022/09/09 08:19:36;;;;;;;12.27;8.27;;;615.20;2432.00;;;;;;5092036;28;20085;-77
2022/09/09 08:22:03;;;;;;;12.05;8.00;;;615.20;2432.00;;;;;;5084798;28;20474;-77
2022/09/09 08:24:28;;;;;;;15.75;8.40;;;615.00;2432.00;;;;;;5078891;28;20438;-76
2022/09/09 08:26:56;;;;;;;13.77;7.93;;;615.30;2432.00;;;;;;5074634;28;20111;-76
2022/09/09 08:29:22;;;;;;;11.32;7.15;;;615.30;2432.00;;;;;;5075570;28;20035;-78
2022/09/09 08:31:54;;;;;;;11.63;8.15;;;;;;;;;;5078927;28;20024;-79
2022/09/09 08:34:21;;;;;;;20.38;7.78;;;640.00;2432.00;;;;;;5074062;28;20033;-77
2022/09/09 08:36:48;;;;;;;11.10;7.10;;;640.10;2432.00;;;;;;5080093;28;20012;-78
2022/09/09 08:39:16;;;;;;;12.88;7.93;;;640.10;2432.00;;;;;;5076697;28;20119;-76
2022/09/09 08:42:41;;;;;;;9.48;7.45;;;640.10;2432.00;;;;;;5086853;28;20031;-76
2022/09/09 08:45:16;;;;;;;12.50;7.55;;;640.10;2432.00;;;;;;5009737;28;20045;-78
2022/09/09 08:48:18;;;;;;;15.38;7.30;;;640.00;2432.00;;;;;;5029153;28;20132;-78
2022/09/09 08:50:46;;;;;;;10.82;6.55;;;640.10;2432.00;;;;;;5013756;28;20365;-78
2022/09/09 08:53:24;;;;;;;14.38;7.25;;;640.20;2432.00;;;;;;4999074;28;20036;-82
2022/09/09 08:55:58;;;;;;;13.48;8.07;;;640.40;2432.00;;;;;;5009758;28;20053;-81
2022/09/09 08:58:32;;;;;;;10.70;7.47;;;640.50;2432.00;;;;;;5010541;28;20024;-78
2022/09/09 09:01:29;;;;;;;13.40;6.72;;;640.50;2432.00;;;;;;5013258;28;20029;-78
2022/09/09 09:04:01;;;;;;;;;;;640.60;2432.00;;;;;;5016358;28;20017;-78
2022/09/09 09:06:55;;;;;;;12.23;7.40;;;640.90;2432.00;;;;;;5013650;28;19915;-79
2022/09/09 09:09:25;;;;;;;11.88;6.82;;;640.90;2432.00;;;;;;4994328;28;20046;-79
2022/09/09 09:11:54;;;;;;;12.60;7.45;;;640.80;2432.00;;;;;;4990663;28;20551;-80
2022/09/09 09:14:24;;;;;;;11.32;8.43;;;640.70;2432.00;;;;;;4988369;28;20091;-80
2022/09/09 09:17:06;;;;;;;14.48;7.68;;;640.70;2432.00;;;;;;4982570;28;20063;-80
2022/09/09 09:19:34;;;;;;;12.38;7.75;;;640.70;2432.00;;;;;;4992186;28;20030;-81
2022/09/09 09:22:32;;;;;;;10.18;7.43;;;640.70;2432.00;;;;;;4998040;28;20096;-81
2022/09/09 09:25:04;;;;;;;18.05;9.70;;;665.70;2432.00;;;;;;4967416;28;20042;-80
2022/09/09 09:27:51;;;;;;;9.65;7.40;;;665.70;2432.00;;;;;;4970593;28;20031;-78
2022/09/09 09:30:23;;;;;;;17.42;9.20;;;665.80;2432.00;;;;;;4981293;28;20080;-77
2022/09/09 09:32:57;;;;;;;18.00;8.63;;;666.10;2432.00;;;;;;4977489;28;20041;-78
2022/09/09 09:35:23;;;;;;;11.68;8.48;;;666.10;2432.00;;;;;;4986120;28;20050;-76
2022/09/09 09:37:50;;;;;;;9.45;7.43;;;665.90;2432.00;;;;;;4973121;28;20023;-78
2022/09/09 09:40:20;;;;;;;11.95;8.88;;;640.90;2432.00;;;;;;4971627;28;20030;-77
2022/09/09 09:43:00;;;;;;;13.38;8.50;;;665.70;2432.00;;;;;;4961169;28;20030;-79
2022/09/09 09:45:29;;;;;;;11.60;9.75;;;665.80;2432.00;;;;;;4966546;28;20046;-77
2022/09/09 09:48:04;;;;;;;15.60;9.88;;;665.70;2432.00;;;;;;4988426;28;20037;-79
2022/09/09 09:50:31;;;;;;;13.97;10.80;;;665.60;2432.00;;;;;;4985388;28;20078;-79
2022/09/09 09:53:05;;;;;;;20.60;11.02;;;665.60;2432.00;;;;;;4978848;28;20257;-79
2022/09/09 09:55:33;;;;;;;16.67;11.82;;;666.00;2432.00;;;;;;5003288;28;20085;-79
2022/09/09 09:58:07;;;;;;;14.50;11.05;;;666.20;2432.00;;;;;;5012232;28;20027;-78
2022/09/09 10:00:34;;;;;;;16.15;11.75;;;666.50;2432.00;;;;;;4982214;28;20054;-79
2022/09/09 10:03:01;;;;;;;15.93;10.75;;;691.20;2432.00;;;;;;5075086;28;20032;-77
2022/09/09 10:05:31;;;;;;;15.45;11.38;;;691.20;2432.00;;;;;;5088957;28;20032;-78
2022/09/09 10:08:16;;;;;;;13.43;10.13;;;666.50;2432.00;;;;;;5089694;28;20043;-76
2022/09/09 10:11:10;;;;;;;15.90;11.68;;;691.20;2432.00;;;;;;5089846;28;20028;-77
2022/09/09 10:14:17;;;;;;;17.67;9.85;;;691.60;2432.00;;;;;;5089763;28;20036;-75
2022/09/09 10:16:49;;;;;;;;;;;691.80;2432.00;;;;;;5061841;28;20048;-77
2022/09/09 10:19:15;;;;;;;21.80;10.57;;;;;;;;;;5100722;28;19911;-76
2022/09/09 10:21:46;;;;;;;13.15;9.30;;;716.80;2432.00;;;;;;5090014;28;20488;-77
2022/09/09 10:24:41;;;;;;;23.65;10.88;;;717.20;2432.00;;;;;;5089890;28;20625;-76
2022/09/09 10:27:49;;;;;;;14.60;9.90;;;717.30;2432.00;;;;;;5032288;28;20033;-76
2022/09/09 10:30:20;;;;;;;13.52;9.77;;;717.60;2432.00;;;;;;5023629;28;20025;-77
2022/09/09 10:33:08;;;;;;;17.00;10.98;;;717.70;2432.00;;;;;;5011975;28;20044;-78
2022/09/09 10:35:53;;;;;;;16.77;10.00;;;717.70;2432.00;;;;;;5005469;28;20034;-79
2022/09/09 10:38:29;;;;;;;16.25;9.55;;;717.70;2432.00;;;;;;5028772;28;20043;-79
2022/09/09 10:40:56;;;;;;;11.20;8.52;;;717.70;2432.00;;;;;;5028655;28;20084;-76
2022/09/09 10:43:30;;;;;;;13.75;9.52;;;742.50;2432.00;;;;;;5028158;28;20101;-77
2022/09/09 10:46:30;;;;;;;14.20;9.23;;;742.40;2432.00;;;;;;5028449;28;20045;-77
2022/09/09 10:49:04;;;;;;;11.23;9.57;;;742.60;2432.00;;;;;;5001028;28;20033;-82
2022/09/09 10:51:35;;;;;;;11.82;9.48;;;742.80;2432.00;;;;;;5014351;28;20087;-79
2022/09/09 10:54:28;;;;;;;13.55;9.07;;;743.00;2432.00;;;;;;5015918;28;20533;-80
2022/09/09 10:57:03;;;;;;;12.00;8.27;;;742.70;2432.00;;;;;;5026761;28;20538;-81
2022/09/09 10:59:36;;;;;;;14.32;9.00;;;742.50;2432.00;;;;;;5031900;28;20110;-79
2022/09/09 11:02:15;;;;;;;12.02;7.95;;;742.50;2432.00;;;;;;5032589;28;20036;-77
2022/09/09 11:04:47;;;;;;;14.25;7.65;;;742.60;2432.00;;;;;;5047330;28;20060;-82
2022/09/09 11:07:27;;;;;;;11.98;7.72;;;742.80;2432.00;;;;;;5084466;28;20028;-79
2022/09/09 11:10:00;;;;;;;11.68;6.75;;;743.10;2432.00;;;;;;5086777;28;20051;-78
2022/09/09 11:12:29;;;;;;;10.10;6.82;;;768.10;2432.00;;;;;;5098117;28;20488;-78
2022/09/09 11:15:15;;;;;;;11.98;7.13;;;768.30;2432.00;;;;;;5080607;28;20040;-78
2022/09/09 11:17:46;;;;;;;;;;;768.70;2329.60;;;;;;5076898;28;20053;-78
2022/09/09 11:20:13;;;;;;;15.07;7.40;;;768.90;2252.80;;;;;;5075653;28;20494;-78
2022/09/09 11:23:16;;;;;;;9.85;7.47;;;793.60;2355.20;;;;;;5077633;28;20037;-78
2022/09/09 11:25:52;;;;;;;9.77;6.78;;;793.70;2432.00;;;;;;5078579;28;20443;-79
2022/09/09 11:28:26;;;;;;;10.73;7.25;;;768.90;2432.00;;;;;;5076439;28;20023;-78
2022/09/09 11:31:07;;;;;;;10.13;6.40;;;768.90;2355.20;;;;;;5071952;28;20031;-78
2022/09/09 11:34:02;;;;;;;9.82;6.85;;;768.90;2227.20;;;;;;5093261;28;20029;-78
2022/09/09 11:36:42;;;;;;;12.43;7.13;;;793.60;2252.80;;;;;;5054329;28;20033;-80
2022/09/09 11:39:29;;;;;;;13.65;6.43;;;793.70;2252.80;;;;;;5090382;28;20012;-78
2022/09/09 11:42:18;;;;;;;10.60;5.95;;;794.00;2252.80;;;;;;5078281;28;20462;-80
2022/09/09 11:44:44;;;;;;;14.15;7.05;;;794.20;2150.40;;;;;;5076068;28;20062;-78
2022/09/09 11:47:31;;;;;;;9.45;6.20;;;794.10;2150.40;;;;;;5075776;28;20036;-80
2022/09/09 11:50:12;;;;;;;10.23;5.80;;;794.20;2176.00;;;;;;5072469;28;20017;-78
2022/09/09 11:52:48;;;;;;;13.15;7.30;;;794.20;2176.00;;;;;;5074028;28;20021;-76
2022/09/09 11:55:26;;;;;;;13.40;7.55;;;794.30;2176.00;;;;;;5071609;28;20112;-78
2022/09/09 11:58:04;;;;;;;11.00;7.05;;;794.50;2201.60;;;;;;5088395;28;20497;-84
2022/09/09 12:00:47;;;;;;;12.35;7.35;;;794.30;2150.40;;;;;;5070959;28;20025;-79
2022/09/09 12:03:31;;;;;;;15.82;8.68;;;794.50;2227.20;;;;;;5073871;28;20021;-78
2022/09/09 12:05:58;;;;;;;10.88;7.45;;;794.50;2201.60;;;;;;5071331;28;20074;-78
2022/09/09 12:08:28;;;;;;;12.30;7.18;;;794.50;2124.80;;;;;;5084185;28;20090;-78
2022/09/09 12:11:02;;;;;;;8.65;6.85;;;819.30;2073.60;;;;;;5083892;28;20073;-78
2022/09/09 12:13:30;;;;;;;14.90;7.60;;;794.30;2201.60;;;;;;5073662;28;20029;-78
2022/09/09 12:15:57;;;;;;;11.18;6.85;;;;;;;;;;5072221;28;20032;-78
2022/09/09 12:18:25;;;;;;;10.88;6.72;;;819.50;2176.00;;;;;;5080595;28;20079;-78
2022/09/09 12:21:27;;;;;;;11.45;6.72;;;819.30;2099.20;;;;;;5089690;28;20051;-78
2022/09/09 12:23:57;;;;;;;14.50;7.20;;;819.20;2176.00;;;;;;5067822;28;20070;-78
2022/09/09 12:26:35;;;;;;;15.02;7.57;;;819.50;2124.80;;;;;;5069394;28;20119;-78
2022/09/09 12:29:07;;;;;;;11.70;6.68;;;819.50;2073.60;;;;;;5052925;28;20040;-78
2022/09/09 12:31:46;;;;;;;11.73;6.68;;;819.20;2150.40;;;;;;5052970;28;20012;-78
2022/09/09 12:34:33;;;;;;;10.75;7.35;;;819.30;2150.40;;;;;;5049655;28;20509;-77
2022/09/09 12:37:12;;;;;;;16.90;8.15;;;819.20;2201.60;;;;;;5069260;28;20049;-77